Time;durP1;ratioP1;P1;durP2;ratioP2;P2;SDS_P1;SDS_P2;PMS_P1;PMS_P2;Temp;Humidity;BMP_temperature;BMP_pressure;BME280_temperature;BME280_humidity;BME280_pressure;Samples;Min_cycle;Max_cycle;Signal;HPM_P1;HPM_P2
2022/04/22 00:00:13;;;;;;;7.33;6.03;;;;;;;12.57;53.73;97918.16;4163174;28;20252;-61
2022/04/22 00:02:15;;;;;;;9.10;6.67;;;;;;;12.29;54.74;97962.03;4175512;28;20254;-60
2022/04/22 00:04:17;;;;;;;9.90;7.83;;;;;;;11.93;54.70;97995.38;4171540;28;20223;-60
2022/04/22 00:06:19;;;;;;;8.33;7.10;;;;;;;12.44;54.04;97949.22;4177319;28;20766;-61
2022/04/22 00:08:22;;;;;;;7.97;6.87;;;;;;;11.90;55.68;98009.13;4171843;28;20704;-60
2022/04/22 00:10:24;;;;;;;8.43;7.53;;;;;;;11.48;56.44;98027.22;4170690;28;20243;-59
2022/04/22 00:12:26;;;;;;;8.50;7.47;;;;;;;11.45;56.15;98025.78;4174889;28;20236;-60
2022/04/22 00:14:28;;;;;;;9.13;7.60;;;;;;;11.61;56.36;98026.38;4166063;28;20285;-60
2022/04/22 00:16:31;;;;;;;9.50;7.93;;;;;;;12.20;54.99;97934.81;4174273;28;20227;-60
2022/04/22 00:18:33;;;;;;;9.87;7.37;;;;;;;11.62;56.38;97999.53;4169351;28;20607;-59
2022/04/22 00:20:35;;;;;;;11.93;8.37;;;;;;;11.98;55.94;97960.13;4171168;28;20236;-61
2022/04/22 00:22:39;;;;;;;11.00;8.20;;;;;;;11.76;56.19;97979.03;4171026;28;20631;-60
2022/04/22 00:24:40;;;;;;;11.90;8.37;;;;;;;11.33;57.41;98012.28;4170584;28;20259;-60
2022/04/22 00:26:42;;;;;;;9.00;7.83;;;;;;;11.62;57.24;97970.25;4177105;28;20289;-60
2022/04/22 00:28:44;;;;;;;9.83;8.17;;;;;;;10.55;58.74;98012.00;4171574;28;20774;-58
2022/04/22 00:30:47;;;;;;;11.63;8.97;;;;;;;10.52;60.63;98020.41;4172299;28;20243;-60
2022/04/22 00:32:49;;;;;;;11.30;8.77;;;;;;;11.24;58.19;97992.25;4171752;28;20323;-59
2022/04/22 00:34:51;;;;;;;11.77;8.43;;;;;;;10.89;58.47;98021.72;4174801;28;20232;-61
2022/04/22 00:36:53;;;;;;;11.43;9.03;;;;;;;12.18;56.37;97866.78;4176828;28;20301;-60
2022/04/22 00:38:56;;;;;;;11.07;9.00;;;;;;;11.54;57.48;97959.84;4174990;28;20236;-59
2022/04/22 00:40:57;;;;;;;13.30;8.70;;;;;;;10.99;57.98;97982.25;4172105;28;20232;-60
2022/04/22 00:43:13;;;;;;;12.47;9.20;;;;;;;11.28;58.58;97958.88;4174964;28;20224;-60
2022/04/22 00:45:18;;;;;;;11.53;9.93;;;;;;;10.72;59.63;98013.28;4168131;28;20270;-60
2022/04/22 00:47:19;;;;;;;12.27;9.37;;;;;;;10.78;59.78;97988.59;4172914;28;20616;-59
2022/04/22 00:49:21;;;;;;;11.47;9.20;;;;;;;11.10;58.37;97972.81;4176860;28;20228;-60
2022/04/22 00:51:23;;;;;;;11.73;9.93;;;;;;;11.17;58.90;97955.03;4168202;28;20653;-60
2022/04/22 00:53:25;;;;;;;10.93;9.00;;;;;;;11.27;58.22;97940.47;4175803;28;20228;-60
2022/04/22 00:55:27;;;;;;;11.07;9.20;;;;;;;11.17;58.95;97946.19;4173396;28;20613;-58
2022/04/22 00:57:31;;;;;;;13.60;10.17;;;;;;;11.38;57.55;97920.41;4170905;28;20224;-60
2022/04/22 00:59:35;;;;;;;13.37;9.57;;;;;;;11.44;58.04;97919.53;4164788;28;20313;-58
2022/04/22 01:01:38;;;;;;;12.00;10.13;;;;;;;11.48;57.79;97894.16;4167942;28;20244;-59
2022/04/22 01:09:47;;;;;;;15.63;10.23;;;;;;;11.16;57.86;97941.94;4171977;28;20319;-60
2022/04/22 01:10:44;;;;;;;12.50;10.63;;;;;;;11.12;58.72;97959.31;4174594;28;20236;-60
2022/04/22 01:12:46;;;;;;;11.57;9.47;;;;;;;11.15;58.82;97954.38;4173959;28;20224;-60
2022/04/22 01:14:48;;;;;;;14.40;10.63;;;;;;;10.94;59.13;97975.91;4165020;28;20947;-60
2022/04/22 01:16:50;;;;;;;13.70;10.33;;;;;;;11.76;57.36;97872.50;4171339;28;20809;-58
2022/04/22 01:18:52;;;;;;;11.63;10.13;;;;;;;12.03;56.38;97838.63;4164779;28;20702;-60
2022/04/22 01:21:01;;;;;;;13.40;10.67;;;;;;;11.04;58.85;97965.66;4171376;28;20228;-60
2022/04/22 01:23:03;;;;;;;12.70;10.80;;;;;;;10.95;59.31;97954.44;4173916;28;20920;-59
2022/04/22 01:25:06;;;;;;;12.43;10.60;;;;;;;11.48;57.51;97888.84;4175355;28;20223;-61
2022/04/22 01:27:09;;;;;;;14.17;10.60;;;;;;;11.55;57.20;97881.63;4172505;28;20239;-61
2022/04/22 01:29:12;;;;;;;14.40;11.23;;;;;;;11.08;58.97;97929.66;4163822;28;20594;-60
2022/04/22 01:31:13;;;;;;;11.13;9.90;;;;;;;11.28;58.46;97916.31;4175488;28;20294;-60
2022/04/22 01:33:15;;;;;;;13.63;10.83;;;;;;;10.58;59.54;97953.13;4175920;28;20318;-60
2022/04/22 01:35:18;;;;;;;14.70;11.50;;;;;;;11.03;58.56;97923.31;4175574;28;20235;-60
2022/04/22 01:37:20;;;;;;;14.57;10.20;;;;;;;10.55;60.00;97967.66;4178957;28;20224;-59
2022/04/22 01:39:22;;;;;;;13.13;11.10;;;;;;;11.01;59.08;97914.75;4177250;28;20290;-61
2022/04/22 01:41:23;;;;;;;12.70;10.40;;;;;;;11.04;58.95;97903.66;4165507;28;20634;-60
2022/04/22 01:43:25;;;;;;;13.93;11.17;;;;;;;11.48;57.62;97856.91;4164615;28;20305;-60
2022/04/22 01:45:27;;;;;;;13.30;10.53;;;;;;;11.17;58.61;97901.81;4174591;28;20232;-60
2022/04/22 01:47:29;;;;;;;13.47;11.17;;;;;;;11.55;57.53;97839.84;4169655;28;20228;-59
2022/04/22 01:49:31;;;;;;;15.27;11.10;;;;;;;11.29;58.03;97894.00;4171556;28;20228;-60
2022/04/22 01:51:33;;;;;;;12.20;10.90;;;;;;;10.84;58.33;97919.66;4175707;28;20286;-61
2022/04/22 01:53:35;;;;;;;12.73;10.90;;;;;;;10.98;58.17;97906.13;4170712;28;20266;-58
2022/04/22 01:55:36;;;;;;;14.23;10.83;;;;;;;10.88;58.90;97904.94;4177360;28;21061;-60
2022/04/22 01:57:38;;;;;;;14.17;11.57;;;;;;;11.09;58.43;97885.25;4173999;28;20231;-61
2022/04/22 01:59:44;;;;;;;15.20;11.30;;;;;;;10.67;59.36;97936.00;4174911;28;20805;-59
2022/04/22 02:01:45;;;;;;;13.47;10.83;;;;;;;10.31;60.43;97960.25;4169275;28;20232;-59
2022/04/22 02:03:47;;;;;;;14.07;11.00;;;;;;;10.57;60.02;97940.91;4171876;28;20690;-60
2022/04/22 02:05:49;;;;;;;14.03;11.63;;;;;;;10.38;60.29;97942.47;4177048;28;20235;-59
2022/04/22 02:07:51;;;;;;;14.80;11.67;;;;;;;10.49;60.18;97922.47;4173389;28;20236;-60
2022/04/22 02:09:52;;;;;;;14.87;11.23;;;;;;;10.46;60.84;97904.28;4176874;28;20239;-58
2022/04/22 02:11:56;;;;;;;14.23;11.80;;;;;;;10.00;62.17;97930.56;4169196;28;20298;-58
2022/04/22 02:13:58;;;;;;;14.47;11.03;;;;;;;10.42;60.50;97893.25;4163595;28;20335;-58
2022/04/22 02:15:59;;;;;;;16.47;11.53;;;;;;;10.71;59.36;97860.13;4167727;28;20235;-61
2022/04/22 02:18:02;;;;;;;14.53;11.13;;;;;;;10.46;60.68;97880.38;4175700;28;20231;-60
2022/04/22 02:20:04;;;;;;;13.60;11.73;;;;;;;10.55;60.16;97869.34;4172139;28;20240;-60
2022/04/22 02:22:07;;;;;;;15.40;12.37;;;;;;;10.90;58.93;97823.94;4165683;28;20275;-60
2022/04/22 02:24:09;;;;;;;15.03;12.10;;;;;;;10.16;61.52;97920.56;4167795;28;20347;-60
2022/04/22 02:26:11;;;;;;;15.67;12.37;;;;;;;10.32;60.58;97896.31;4173103;28;20766;-59
2022/04/22 02:30:33;;;;;;;15.70;11.93;;;;;;;10.26;61.37;97883.81;4167262;28;20262;-60
2022/04/22 02:32:35;;;;;;;15.57;12.37;;;;;;;10.67;59.94;97828.84;4166168;28;20240;-60
2022/04/22 02:34:36;;;;;;;17.37;13.40;;;;;;;10.65;60.48;97839.69;4172306;28;20232;-60
2022/04/22 02:36:41;;;;;;;15.93;12.33;;;;;;;10.72;59.83;97826.41;4176438;28;20315;-60
2022/04/22 02:38:43;;;;;;;15.27;12.67;;;;;;;10.85;59.35;97822.91;4172578;28;20900;-60
2022/04/22 02:45:27;;;;;;;16.00;12.90;;;;;;;10.41;60.25;97884.47;4170724;28;20227;-60
2022/04/22 02:47:29;;;;;;;16.77;12.70;;;;;;;10.16;61.09;97909.97;4178240;28;20228;-60
2022/04/22 02:49:30;;;;;;;16.20;13.97;;;;;;;10.27;61.13;97898.75;4172023;28;20230;-60
2022/04/22 02:51:32;;;;;;;17.03;13.23;;;;;;;10.50;60.23;97868.31;4168078;28;20301;-59
2022/04/22 02:53:34;;;;;;;16.50;13.23;;;;;;;10.71;59.44;97814.13;4169657;28;20232;-59
2022/04/22 02:55:40;;;;;;;17.00;13.73;;;;;;;10.43;60.05;97868.28;4175180;28;20232;-60
2022/04/22 02:57:44;;;;;;;15.60;12.63;;;;;;;10.41;60.47;97887.13;4179352;28;20616;-58
2022/04/22 02:59:46;;;;;;;15.83;12.67;;;;;;;9.95;61.27;97910.94;4173606;28;20287;-60
2022/04/22 03:01:48;;;;;;;16.93;12.60;;;;;;;10.34;60.82;97878.31;4163689;28;20245;-59
2022/04/22 03:03:50;;;;;;;17.07;13.30;;;;;;;9.78;62.19;97932.53;4169521;28;20232;-60
2022/04/22 03:05:52;;;;;;;17.00;13.63;;;;;;;9.85;62.11;97896.19;4177147;28;20289;-59
2022/04/22 03:07:53;;;;;;;17.23;13.53;;;;;;;9.64;61.98;97914.94;4172651;28;20252;-60
2022/04/22 03:09:55;;;;;;;15.57;12.40;;;;;;;9.75;62.00;97911.69;4175603;28;20244;-59
2022/04/22 03:11:57;;;;;;;15.67;12.20;;;;;;;10.01;61.35;97878.25;4173667;28;20689;-60
2022/04/22 03:13:59;;;;;;;16.17;13.23;;;;;;;10.16;60.49;97851.53;4173056;28;20235;-60
2022/04/22 03:16:02;;;;;;;15.90;12.30;;;;;;;9.54;62.22;97931.19;4167390;28;20299;-60
2022/04/22 03:18:04;;;;;;;14.53;12.10;;;;;;;9.44;62.76;97936.03;4178493;28;20227;-60
2022/04/22 03:20:07;;;;;;;17.37;13.17;;;;;;;9.96;61.04;97865.59;4167798;28;20260;-60
2022/04/22 03:22:08;;;;;;;16.10;13.00;;;;;;;9.54;62.21;97909.94;4169630;28;20298;-60
2022/04/22 03:24:11;;;;;;;18.00;13.30;;;;;;;9.56;62.32;97912.41;4167229;28;20367;-60
2022/04/22 03:26:13;;;;;;;16.23;12.67;;;;;;;9.43;62.50;97907.84;4172419;28;20265;-60
2022/04/22 03:28:15;;;;;;;15.70;13.40;;;;;;;9.80;61.67;97850.03;4166531;28;20240;-60
2022/04/22 03:30:17;;;;;;;16.90;13.17;;;;;;;8.95;63.89;97927.16;4169415;28;20242;-59
2022/04/22 03:32:19;;;;;;;18.73;13.13;;;;;;;9.13;63.34;97918.69;4174031;28;20722;-60
2022/04/22 03:34:22;;;;;;;19.17;14.00;;;;;;;9.06;63.74;97918.66;4170815;28;20856;-60
2022/04/22 03:36:24;;;;;;;17.37;13.37;;;;;;;8.90;64.09;97926.91;4170847;28;20614;-60
2022/04/22 03:38:27;;;;;;;14.97;13.20;;;;;;;8.94;64.30;97907.75;4171075;28;20239;-63
2022/04/22 03:40:29;;;;;;;16.40;13.43;;;;;;;8.77;63.62;97923.13;4174553;28;20665;-61
2022/04/22 03:42:32;;;;;;;17.73;13.70;;;;;;;9.43;62.73;97849.47;4171725;28;20235;-62
2022/04/22 03:44:33;;;;;;;17.37;13.40;;;;;;;9.51;62.25;97851.97;4172895;28;20225;-61
2022/04/22 03:46:36;;;;;;;17.07;13.43;;;;;;;8.93;63.90;97919.41;4173686;28;20235;-61
2022/04/22 03:48:37;;;;;;;17.07;14.10;;;;;;;9.25;62.67;97872.06;4174839;28;20240;-61
2022/04/22 03:50:40;;;;;;;16.90;14.20;;;;;;;9.24;62.58;97886.31;4175532;28;20304;-61
2022/04/22 03:52:42;;;;;;;17.27;13.70;;;;;;;9.23;63.20;97879.38;4177627;28;20310;-62
2022/04/22 03:54:44;;;;;;;18.83;14.50;;;;;;;9.14;64.08;97872.63;4175878;28;20233;-64
2022/04/22 03:59:06;;;;;;;17.97;14.43;;;;;;;9.25;62.82;97857.97;4175508;28;20227;-60
2022/04/22 04:01:07;;;;;;;15.40;12.70;;;;;;;8.97;64.33;97884.56;4175389;28;20235;-60
2022/04/22 04:03:11;;;;;;;18.77;14.10;;;;;;;9.21;63.02;97864.69;4173266;28;20268;-60
2022/04/22 04:05:12;;;;;;;17.90;14.37;;;;;;;9.13;63.54;97892.16;4177594;28;20222;-59
2022/04/22 04:07:14;;;;;;;18.07;13.53;;;;;;;9.31;63.04;97834.13;4175912;28;20224;-61
2022/04/22 04:15:58;;;;;;;16.60;14.27;;;;;;;8.94;63.94;97883.91;4175782;28;20227;-58
2022/04/22 04:18:00;;;;;;;17.63;14.50;;;;;;;9.38;62.34;97807.63;4176215;28;20258;-57
2022/04/22 04:24:47;;;;;;;19.20;14.90;;;;;;;8.70;64.30;97903.72;4176324;28;20605;-56
2022/04/22 04:26:49;;;;;;;18.00;14.13;;;;;;;8.36;65.14;97926.47;4171975;28;20283;-57
2022/04/22 04:28:52;;;;;;;17.27;13.80;;;;;;;8.75;63.92;97890.72;4177692;28;20235;-58
2022/04/22 04:30:56;;;;;;;18.60;14.00;;;;;;;9.35;62.94;97800.06;4174285;28;20645;-59
2022/04/22 04:32:58;;;;;;;19.83;14.87;;;;;;;8.90;63.19;97874.72;4173753;28;20892;-58
2022/04/22 04:34:59;;;;;;;21.57;15.10;;;;;;;8.89;64.19;97859.00;4176216;28;20291;-58
2022/04/22 04:37:06;;;;;;;18.83;14.23;;;;;;;9.33;62.84;97813.56;4180245;28;20230;-58
2022/04/22 04:39:08;;;;;;;19.83;14.77;;;;;;;9.27;62.91;97840.03;4173933;28;20233;-59
2022/04/22 04:41:13;;;;;;;18.73;14.13;;;;;;;9.16;63.08;97883.03;4168929;28;20231;-55
2022/04/22 04:43:17;;;;;;;20.13;15.10;;;;;;;8.67;64.64;97920.00;4167572;28;20309;-59
2022/04/22 04:45:20;;;;;;;18.07;15.10;;;;;;;9.07;63.37;97866.47;4172598;28;20285;-59
2022/04/22 04:47:22;;;;;;;23.17;15.00;;;;;;;9.48;62.11;97821.34;4172089;28;20259;-59
2022/04/22 04:49:27;;;;;;;19.83;15.40;;;;;;;9.41;62.25;97852.34;4177318;28;20228;-59
2022/04/22 04:51:29;;;;;;;20.07;15.27;;;;;;;9.30;62.17;97874.94;4171965;28;20268;-57
2022/04/22 04:53:30;;;;;;;20.37;14.93;;;;;;;8.99;63.81;97909.84;4171105;28;20225;-58
2022/04/22 04:55:32;;;;;;;20.43;15.80;;;;;;;8.58;65.09;97940.50;4176241;28;20224;-57
2022/04/22 04:57:35;;;;;;;17.67;13.87;;;;;;;8.92;64.58;97874.53;4172304;28;20220;-57
2022/04/22 04:59:36;;;;;;;18.00;14.93;;;;;;;8.34;66.07;97931.13;4174449;28;20700;-55
2022/04/22 05:01:38;;;;;;;21.43;14.50;;;;;;;9.07;63.64;97861.97;4167215;28;20229;-58
2022/04/22 05:03:40;;;;;;;18.47;15.13;;;;;;;9.07;63.66;97866.47;4165526;28;20229;-59
2022/04/22 05:05:42;;;;;;;20.63;16.53;;;;;;;9.25;62.62;97858.81;4174944;28;20300;-59
2022/04/22 05:07:48;;;;;;;19.97;16.27;;;;;;;9.63;61.84;97807.94;4174410;28;20237;-58
2022/04/22 05:09:50;;;;;;;19.73;15.63;;;;;;;9.41;62.60;97822.34;4178155;28;20243;-59
2022/04/22 05:11:51;;;;;;;18.73;14.97;;;;;;;9.30;62.84;97855.53;4164238;28;20296;-59
2022/04/22 05:13:53;;;;;;;20.43;16.60;;;;;;;9.26;63.26;97859.63;4176846;28;20240;-56
2022/04/22 05:15:56;;;;;;;20.03;15.97;;;;;;;8.98;64.23;97889.66;4168069;28;20290;-59
2022/04/22 05:17:59;;;;;;;22.47;15.77;;;;;;;8.73;65.03;97916.59;4177096;28;20236;-57
2022/04/22 05:20:02;;;;;;;23.60;17.23;;;;;;;9.20;64.11;97839.19;4169024;28;20267;-59
2022/04/22 05:22:04;;;;;;;21.20;16.90;;;;;;;8.90;64.93;97873.91;4169311;28;20294;-58
2022/04/22 05:24:06;;;;;;;24.47;18.23;;;;;;;9.06;64.42;97856.84;4164167;28;20298;-58
2022/04/22 05:26:08;;;;;;;25.10;18.27;;;;;;;9.00;64.59;97857.63;4170546;28;20235;-58
2022/04/22 05:28:09;;;;;;;25.47;17.23;;;;;;;9.25;63.79;97828.78;4169519;28;20322;-58
2022/04/22 05:32:39;;;;;;;25.33;17.07;;;;;;;9.21;64.29;97849.59;4164705;28;20262;-55
2022/04/22 05:34:40;;;;;;;22.87;17.00;;;;;;;8.74;64.65;97920.88;4172018;28;20239;-57
2022/04/22 05:36:43;;;;;;;23.17;17.67;;;;;;;8.88;65.03;97892.66;4167380;28;20618;-59
2022/04/22 05:38:44;;;;;;;22.67;17.57;;;;;;;8.84;64.63;97896.69;4171615;28;20245;-57
2022/04/22 05:40:47;;;;;;;22.23;17.17;;;;;;;9.05;65.53;97857.88;4172654;28;20272;-57
2022/04/22 05:42:50;;;;;;;21.00;16.93;;;;;;;8.90;65.49;97882.66;4174377;28;20707;-57
2022/04/22 05:44:51;;;;;;;23.73;17.43;;;;;;;9.72;62.69;97805.91;4167511;28;20291;-57
2022/04/22 05:46:53;;;;;;;21.77;18.33;;;;;;;8.99;65.10;97880.69;4163731;28;20709;-58
2022/04/22 05:48:55;;;;;;;22.77;18.30;;;;;;;9.39;63.55;97821.72;4168534;28;20246;-57
2022/04/22 05:50:57;;;;;;;25.80;19.13;;;;;;;9.37;64.17;97834.34;4165622;28;20226;-59
2022/04/22 05:52:58;;;;;;;23.13;17.70;;;;;;;9.10;64.42;97856.28;4165038;28;20665;-57
2022/04/22 05:55:02;;;;;;;23.60;17.10;;;;;;;9.27;64.57;97832.09;4166289;28;20315;-57
2022/04/22 05:57:04;;;;;;;22.37;17.83;;;;;;;9.03;65.59;97884.59;4170375;28;20232;-55
2022/04/22 05:59:06;;;;;;;25.07;17.97;;;;;;;9.44;63.88;97814.00;4177154;28;20230;-58
2022/04/22 06:01:07;;;;;;;26.87;18.00;;;;;;;9.32;64.33;97835.78;4173454;28;20299;-58
2022/04/22 06:03:09;;;;;;;25.63;19.07;;;;;;;9.56;63.95;97816.88;4167391;28;20230;-58
2022/04/22 06:05:13;;;;;;;29.13;19.00;;;;;;;9.47;63.98;97813.59;4174296;28;20913;-57
2022/04/22 06:07:15;;;;;;;24.03;18.07;;;;;;;9.54;64.26;97817.09;4176183;28;20220;-57
2022/04/22 06:11:37;;;;;;;24.67;17.80;;;;;;;9.90;63.68;97796.56;4168649;28;20252;-57
2022/04/22 06:13:38;;;;;;;26.93;18.70;;;;;;;9.60;64.50;97805.69;4169142;28;20294;-58
2022/04/22 06:15:45;;;;;;;23.93;18.53;;;;;;;10.14;62.69;97765.94;4177232;28;20239;-56
2022/04/22 06:17:47;;;;;;;21.93;17.77;;;;;;;9.87;63.38;97781.84;4172723;28;20240;-56
2022/04/22 06:19:49;;;;;;;21.87;17.63;;;;;;;9.86;63.92;97780.22;4171558;28;20245;-57
2022/04/22 06:21:51;;;;;;;25.97;18.47;;;;;;;9.85;63.73;97778.59;4171906;28;20700;-57
2022/04/22 06:23:52;;;;;;;24.93;18.60;;;;;;;10.21;63.00;97762.28;4164537;28;20278;-55
2022/04/22 06:25:54;;;;;;;23.00;17.93;;;;;;;10.87;61.37;97739.28;4172133;28;20266;-58
2022/04/22 06:27:56;;;;;;;23.87;18.23;;;;;;;10.36;63.06;97755.91;4172359;28;20235;-58
2022/04/22 06:30:07;;;;;;;22.73;18.63;;;;;;;10.46;62.63;97744.88;4175855;28;20235;-56
2022/04/22 06:32:10;;;;;;;23.83;18.63;;;;;;;10.33;62.87;97764.28;4175989;28;20720;-58
2022/04/22 06:34:12;;;;;;;23.70;17.97;;;;;;;10.48;62.34;97745.47;4172517;28;20289;-58
2022/04/22 06:36:17;;;;;;;23.60;17.93;;;;;;;10.47;62.96;97749.97;4178137;28;20227;-58
2022/04/22 06:38:20;;;;;;;23.33;18.47;;;;;;;10.60;62.01;97739.31;4168939;28;20234;-57
2022/04/22 06:47:24;;;;;;;21.13;17.03;;;;;;;10.58;62.20;97736.06;4174114;28;20266;-59
2022/04/22 06:49:26;;;;;;;22.23;18.10;;;;;;;10.46;62.36;97764.28;4173659;28;20227;-58
2022/04/22 06:51:28;;;;;;;22.63;17.90;;;;;;;10.51;62.12;97739.75;4168025;28;20769;-59
2022/04/22 06:53:30;;;;;;;24.87;18.13;;;;;;;11.05;61.00;97717.28;4170126;28;20224;-56
2022/04/22 06:55:32;;;;;;;22.43;18.23;;;;;;;10.01;63.44;97803.91;4162590;28;20236;-57
2022/04/22 06:57:36;;;;;;;23.83;18.57;;;;;;;10.17;62.49;97778.81;4165796;28;20235;-58
2022/04/22 06:59:38;;;;;;;22.47;18.30;;;;;;;10.54;62.46;97745.44;4165037;28;20294;-57
2022/04/22 07:01:39;;;;;;;23.80;18.90;;;;;;;10.87;62.10;97725.97;4169009;28;20738;-58
2022/04/22 07:03:44;;;;;;;33.00;19.23;;;;;;;10.89;60.18;97720.44;4175303;28;20591;-58
2022/04/22 07:05:48;;;;;;;24.03;19.00;;;;;;;10.85;61.23;97721.88;4163118;28;20251;-58
2022/04/22 07:07:50;;;;;;;24.43;18.60;;;;;;;10.87;61.53;97728.63;4165081;28;20285;-59
2022/04/22 07:09:52;;;;;;;24.93;19.03;;;;;;;10.47;62.11;97751.81;4173801;28;20243;-58
2022/04/22 07:11:54;;;;;;;23.10;18.13;;;;;;;10.27;63.53;97797.00;4169734;28;20233;-59
2022/04/22 07:13:59;;;;;;;22.60;17.93;;;;;;;10.10;63.54;97815.19;4170201;28;20240;-58
2022/04/22 07:16:02;;;;;;;22.67;17.83;;;;;;;10.96;62.64;97721.22;4164842;28;20283;-59
2022/04/22 07:18:05;;;;;;;25.87;19.30;;;;;;;9.64;63.87;97845.94;4171502;28;20262;-59
2022/04/22 07:20:09;;;;;;;23.97;18.97;;;;;;;10.49;62.08;97744.44;4168794;28;20874;-59
2022/04/22 07:22:17;;;;;;;23.93;19.10;;;;;;;10.66;62.25;97742.16;4173852;28;20905;-58
2022/04/22 07:24:19;;;;;;;23.50;18.93;;;;;;;9.80;63.94;97848.19;4169816;28;20255;-58
2022/04/22 07:26:21;;;;;;;24.47;18.53;;;;;;;9.87;63.70;97824.31;4176868;28;20231;-57
2022/04/22 07:28:27;;;;;;;23.63;18.93;;;;;;;10.61;61.88;97726.84;4168724;28;20239;-57
2022/04/22 07:30:28;;;;;;;22.73;18.83;;;;;;;10.40;62.38;97738.53;4166089;28;20284;-59
2022/04/22 07:32:31;;;;;;;23.57;18.93;;;;;;;11.24;60.82;97698.78;4169179;28;20361;-56
2022/04/22 07:34:32;;;;;;;24.00;19.10;;;;;;;9.87;64.16;97830.47;4174367;28;20235;-58
2022/04/22 07:36:35;;;;;;;24.57;19.83;;;;;;;10.58;60.94;97724.59;4167309;28;20240;-56
2022/04/22 07:38:36;;;;;;;26.40;20.03;;;;;;;9.76;63.98;97817.78;4172417;28;20610;-59
2022/04/22 07:40:40;;;;;;;23.23;19.03;;;;;;;10.16;63.80;97770.03;4175489;28;20897;-60
2022/04/22 07:46:46;;;;;;;23.60;18.50;;;;;;;9.86;63.29;97806.78;4177003;28;20239;-58
2022/04/22 07:47:29;;;;;;;24.00;19.23;;;;;;;11.11;61.79;97697.03;4175798;28;20657;-58
2022/04/22 07:49:31;;;;;;;24.43;20.00;;;;;;;10.82;61.83;97709.84;4172362;28;20712;-58
2022/04/22 07:51:33;;;;;;;27.40;20.10;;;;;;;10.96;60.94;97703.44;4170765;28;20224;-57
2022/04/22 07:53:35;;;;;;;24.90;19.27;;;;;;;10.91;61.45;97705.91;4173049;28;20283;-57
2022/04/22 07:55:37;;;;;;;22.60;19.10;;;;;;;11.28;60.56;97681.38;4176026;28;20317;-58
2022/04/22 07:57:40;;;;;;;20.90;18.60;;;;;;;10.71;63.01;97726.41;4173616;28;20228;-58
2022/04/22 07:59:44;;;;;;;23.13;17.10;;;;;;;10.23;62.76;97791.28;4170259;28;20724;-57
2022/04/22 08:01:46;;;;;;;21.73;17.77;;;;;;;10.41;62.30;97741.00;4173182;28;20239;-55
2022/04/22 08:03:48;;;;;;;21.83;17.30;;;;;;;10.33;61.76;97749.19;4175950;28;20263;-57
2022/04/22 08:05:49;;;;;;;23.13;18.60;;;;;;;10.61;62.54;97729.50;4176816;28;20590;-57
2022/04/22 08:07:51;;;;;;;22.23;17.83;;;;;;;10.48;62.47;97738.34;4175126;28;20247;-57
2022/04/22 08:09:53;;;;;;;21.17;17.40;;;;;;;10.56;62.69;97726.66;4182887;28;20778;-55
2022/04/22 08:11:54;;;;;;;22.97;18.47;;;;;;;11.89;59.55;97671.94;4170341;28;20298;-56
2022/04/22 08:13:56;;;;;;;24.27;18.97;;;;;;;10.95;62.84;97707.13;4174110;28;20231;-57
2022/04/22 08:15:58;;;;;;;21.83;18.57;;;;;;;12.07;60.00;97650.66;4167515;28;20236;-59
2022/04/22 08:18:01;;;;;;;23.30;18.67;;;;;;;12.15;58.56;97632.75;4178595;28;20236;-57
2022/04/22 08:20:05;;;;;;;22.63;18.33;;;;;;;12.05;58.49;97631.44;4176893;28;20290;-57
2022/04/22 08:22:06;;;;;;;25.00;18.90;;;;;;;11.60;60.93;97668.06;4172784;28;20235;-58
2022/04/22 08:24:10;;;;;;;23.30;18.73;;;;;;;11.90;59.12;97654.94;4170357;28;20279;-56
2022/04/22 08:26:13;;;;;;;22.40;17.53;;;;;;;11.82;59.88;97636.53;4178051;28;20232;-56
2022/04/22 08:28:15;;;;;;;20.23;17.10;;;;;;;11.78;60.13;97649.47;4171836;28;20271;-56
2022/04/22 08:30:17;;;;;;;21.07;17.80;;;;;;;12.13;58.97;97632.97;4170684;28;20615;-58
2022/04/22 08:32:19;;;;;;;25.63;17.87;;;;;;;12.33;59.78;97627.44;4172715;28;20325;-56
2022/04/22 08:34:21;;;;;;;23.43;18.17;;;;;;;12.77;58.89;97603.31;4173007;28;20227;-55
2022/04/22 08:36:32;;;;;;;24.30;19.30;;;;;;;13.34;56.75;97570.91;4173944;28;20593;-57
2022/04/22 08:38:33;;;;;;;24.03;18.27;;;;;;;13.34;57.31;97550.38;4173343;28;20231;-56
2022/04/22 08:40:39;;;;;;;20.97;18.10;;;;;;;11.99;59.08;97619.00;4176381;28;20246;-58
2022/04/22 08:42:42;;;;;;;24.13;18.77;;;;;;;12.07;59.69;97653.34;4170474;28;20301;-57
2022/04/22 08:44:45;;;;;;;24.10;17.37;;;;;;;12.67;58.02;97595.84;4175638;28;20231;-58
2022/04/22 08:51:28;;;;;;;20.60;17.17;;;;;;;12.93;56.82;97586.72;4171488;28;20269;-58
2022/04/22 08:53:31;;;;;;;18.93;16.60;;;;;;;13.20;55.93;97567.66;4175156;28;20232;-59
2022/04/22 08:55:34;;;;;;;22.87;17.50;;;;;;;12.61;57.68;97570.13;4175225;28;20297;-57
2022/04/22 08:57:36;;;;;;;20.70;17.43;;;;;;;12.27;59.40;97629.16;4172939;28;20677;-58
2022/04/22 08:59:38;;;;;;;18.27;16.13;;;;;;;13.07;57.43;97576.66;4171350;28;20959;-57
2022/04/22 09:01:40;;;;;;;19.17;15.40;;;;;;;13.36;56.60;97553.63;4175353;28;20775;-56
2022/04/22 09:03:41;;;;;;;19.33;16.37;;;;;;;13.14;56.72;97547.22;4166699;28;20268;-57
2022/04/22 09:05:44;;;;;;;19.60;17.07;;;;;;;13.82;57.23;97515.66;4173622;28;20349;-55
2022/04/22 09:07:47;;;;;;;20.60;15.40;;;;;;;13.28;55.01;97534.47;4174445;28;20266;-56
2022/04/22 09:09:51;;;;;;;19.87;15.87;;;;;;;13.21;55.99;97535.41;4178780;28;20739;-56
2022/04/22 09:11:54;;;;;;;18.47;15.47;;;;;;;13.48;55.68;97526.94;4171705;28;20244;-58
2022/04/22 09:13:55;;;;;;;19.00;15.17;;;;;;;13.39;55.71;97542.47;4163291;28;20808;-56
2022/04/22 09:16:00;;;;;;;16.33;13.87;;;;;;;12.49;57.29;97623.38;4172127;28;20797;-58
2022/04/22 09:18:15;;;;;;;17.57;15.10;;;;;;;13.59;55.37;97542.13;4173007;28;20299;-59
2022/04/22 09:20:17;;;;;;;17.10;14.70;;;;;;;12.58;57.31;97600.69;4169933;28;20238;-57
2022/04/22 09:22:20;;;;;;;19.33;14.87;;;;;;;13.10;56.93;97567.41;4173220;28;20650;-58
2022/04/22 09:24:22;;;;;;;17.13;14.00;;;;;;;12.67;56.97;97580.69;4175056;28;20281;-58
2022/04/22 09:26:25;;;;;;;16.37;13.97;;;;;;;13.85;55.22;97513.34;4173293;28;20293;-57
2022/04/22 09:28:27;;;;;;;18.00;15.37;;;;;;;13.88;54.25;97509.41;4173011;28;20502;-57
2022/04/22 09:30:28;;;;;;;18.43;14.20;;;;;;;14.06;54.57;97498.56;4174862;28;20785;-55
2022/04/22 09:32:32;;;;;;;16.10;13.90;;;;;;;13.35;55.60;97508.50;4176610;28;20235;-57
2022/04/22 09:34:37;;;;;;;17.13;14.23;;;;;;;12.71;56.77;97626.38;4171514;28;20236;-55
2022/04/22 09:44:14;;;;;;;16.20;13.80;;;;;;;12.63;57.02;97614.16;4155682;28;20224;-55
2022/04/22 09:46:22;;;;;;;15.17;12.77;;;;;;;13.77;53.50;97505.69;4174542;28;20272;-56
2022/04/22 09:48:24;;;;;;;18.53;13.40;;;;;;;13.54;53.99;97485.97;4175544;28;20239;-58
2022/04/22 09:50:40;;;;;;;16.40;13.20;;;;;;;14.01;53.91;97489.63;4174424;28;20345;-57
2022/04/22 09:52:46;;;;;;;15.63;12.77;;;;;;;14.08;53.33;97469.72;4175753;28;20290;-57
2022/04/22 09:54:59;;;;;;;14.97;12.90;;;;;;;14.06;54.01;97466.50;4174252;28;20238;-57
2022/04/22 09:57:10;;;;;;;14.07;12.30;;;;;;;14.11;54.69;97447.88;4168500;28;20294;-56
2022/04/22 09:59:25;;;;;;;15.67;13.47;;;;;;;14.81;52.64;97424.50;4171696;28;20228;-56
2022/04/22 10:01:27;;;;;;;14.67;12.53;;;;;;;13.78;53.98;97454.69;4171472;28;20327;-58
2022/04/22 10:03:48;;;;;;;14.83;12.97;;;;;;;14.67;52.37;97423.19;4172282;28;20240;-58
2022/04/22 10:05:51;;;;;;;16.07;12.73;;;;;;;14.45;53.87;97426.56;4172758;28;20307;-58
2022/04/22 10:07:55;;;;;;;14.87;12.03;;;;;;;14.31;54.35;97452.00;4172790;28;20798;-56
2022/04/22 10:10:15;;;;;;;15.80;12.53;;;;;;;13.99;54.07;97478.34;4177766;28;20241;-57
2022/04/22 10:12:19;;;;;;;17.03;11.63;;;;;;;14.67;53.46;97413.31;4171071;28;20228;-58
2022/04/22 10:14:38;;;;;;;13.17;11.50;;;;;;;15.10;52.44;97383.47;4174470;28;20242;-58
2022/04/22 10:16:40;;;;;;;14.47;12.07;;;;;;;14.18;54.33;97453.09;4169910;28;20235;-57
2022/04/22 10:18:43;;;;;;;14.73;11.50;;;;;;;14.96;53.67;97393.72;4172295;28;20231;-58
2022/04/22 10:20:45;;;;;;;14.03;12.13;;;;;;;15.67;51.01;97345.66;4167034;28;20782;-57